Time;durP1;ratioP1;P1;durP2;ratioP2;P2;SDS_P1;SDS_P2;PMS_P1;PMS_P2;Temp;Humidity;BMP_temperature;BMP_pressure;BME280_temperature;BME280_humidity;BME280_pressure;Samples;Min_cycle;Max_cycle;Signal;HPM_P1;HPM_P2
2023/01/22 00:01:50;;;;;;;6.45;6.38;;;0.90;99.90;;;;;;5223225;22;20337;-84
2023/01/22 00:04:10;;;;;;;5.35;5.35;;;0.90;99.90;;;;;;5227676;22;20345;-84
2023/01/22 00:06:31;;;;;;;6.90;6.80;;;0.90;99.90;;;;;;5227616;22;20042;-84
2023/01/22 00:08:53;;;;;;;7.88;7.68;;;0.90;99.90;;;;;;5227668;22;20023;-84
2023/01/22 00:11:14;;;;;;;7.90;7.80;;;0.90;99.90;;;;;;5234114;22;20046;-84
2023/01/22 00:13:34;;;;;;;6.00;5.90;;;0.90;99.90;;;;;;5201960;22;20026;-84
2023/01/22 00:15:58;;;;;;;5.65;5.65;;;0.90;99.90;;;;;;5202142;22;20038;-84
2023/01/22 00:18:18;;;;;;;8.27;8.07;;;0.90;99.90;;;;;;5224425;22;20114;-84
2023/01/22 00:20:39;;;;;;;6.78;6.68;;;0.90;99.90;;;;;;5232827;22;20022;-84
2023/01/22 00:23:01;;;;;;;5.75;5.65;;;0.90;99.90;;;;;;5232920;22;20064;-84
2023/01/22 00:25:22;;;;;;;6.50;6.40;;;1.00;99.90;;;;;;5224419;22;20096;-84
2023/01/22 00:27:42;;;;;;;6.15;6.13;;;1.00;99.90;;;;;;5216019;22;20109;-84
2023/01/22 00:30:02;;;;;;;5.45;5.35;;;1.00;99.90;;;;;;5186587;22;20108;-84
2023/01/22 00:32:23;;;;;;;11.07;10.63;;;1.00;99.90;;;;;;5211159;22;20376;-84
2023/01/22 00:34:49;;;;;;;6.53;6.43;;;1.00;99.90;;;;;;5224402;22;20061;-84
2023/01/22 00:37:09;;;;;;;6.68;6.63;;;1.00;99.90;;;;;;5224266;22;20211;-84
2023/01/22 00:39:28;;;;;;;5.68;5.65;;;1.00;99.90;;;;;;5224195;22;20256;-84
2023/01/22 00:41:48;;;;;;;5.85;5.82;;;1.00;99.90;;;;;;5200705;22;20077;-84
2023/01/22 00:44:11;;;;;;;5.03;5.03;;;0.90;99.90;;;;;;5197493;22;20051;-84
2023/01/22 00:46:31;;;;;;;;;;;0.90;99.90;;;;;;5197999;22;20106;-84
2023/01/22 00:48:51;;;;;;;5.68;5.68;;;0.90;99.90;;;;;;5220476;22;19918;-85
2023/01/22 00:51:13;;;;;;;6.95;6.85;;;0.90;99.90;;;;;;5224289;22;20210;-85
2023/01/22 00:53:35;;;;;;;5.50;5.20;;;0.90;99.90;;;;;;5224848;22;20026;-85
2023/01/22 00:55:57;;;;;;;7.03;6.82;;;1.00;99.90;;;;;;5227552;22;20321;-84
2023/01/22 00:58:17;;;;;;;6.57;6.38;;;1.00;99.90;;;;;;5227586;22;20034;-84
2023/01/22 01:00:37;;;;;;;4.63;4.53;;;1.00;99.90;;;;;;5227372;22;20037;-84
2023/01/22 01:05:35;;;;;;;5.60;5.50;;;1.00;99.90;;;;;;5204075;22;20026;-84
2023/01/22 01:07:54;;;;;;;5.65;5.65;;;0.90;99.90;;;;;;5223075;22;20041;-84
2023/01/22 01:10:14;;;;;;;5.78;5.70;;;0.90;99.90;;;;;;5200587;22;20102;-84
2023/01/22 01:12:34;;;;;;;5.97;5.75;;;1.00;99.90;;;;;;5215696;22;20112;-84
2023/01/22 01:14:55;;;;;;;5.60;5.50;;;1.00;99.90;;;;;;5224196;22;20023;-84
2023/01/22 01:17:14;;;;;;;6.85;6.65;;;1.00;99.90;;;;;;5224085;22;20368;-85
2023/01/22 01:19:35;;;;;;;5.85;5.85;;;1.10;99.90;;;;;;5223973;22;20021;-85
2023/01/22 01:21:55;;;;;;;6.50;6.40;;;1.10;99.90;;;;;;5224166;22;20025;-84
2023/01/22 01:24:15;;;;;;;7.45;7.35;;;1.10;99.90;;;;;;5224097;22;20022;-85
2023/01/22 01:26:34;;;;;;;5.40;5.30;;;1.10;99.90;;;;;;5224060;22;20341;-84
2023/01/22 01:28:54;;;;;;;5.18;5.18;;;1.10;99.90;;;;;;5224164;22;20023;-84
2023/01/22 01:31:16;;;;;;;5.32;5.32;;;1.00;99.90;;;;;;5224134;22;20029;-84
2023/01/22 01:33:35;;;;;;;5.50;5.50;;;1.00;99.90;;;;;;5223959;22;20026;-84
2023/01/22 01:36:00;;;;;;;5.85;5.65;;;1.00;99.90;;;;;;5224213;22;20021;-84
2023/01/22 01:38:20;;;;;;;5.25;5.10;;;1.00;99.90;;;;;;5224234;22;20060;-84
2023/01/22 01:40:43;;;;;;;5.25;5.25;;;1.00;99.90;;;;;;5200449;22;20090;-84
2023/01/22 01:43:03;;;;;;;5.60;5.50;;;1.00;99.90;;;;;;5222724;22;20026;-84
2023/01/22 01:45:23;;;;;;;4.90;4.90;;;1.00;99.90;;;;;;5223323;22;20130;-84
2023/01/22 01:47:44;;;;;;;4.70;4.63;;;1.00;99.90;;;;;;5227250;22;20118;-84
2023/01/22 01:50:04;;;;;;;5.05;5.05;;;1.00;99.90;;;;;;5227222;22;20066;-84
2023/01/22 01:52:24;;;;;;;5.63;5.53;;;1.10;99.90;;;;;;5235908;22;20021;-84
2023/01/22 01:54:48;;;;;;;6.13;5.93;;;1.00;99.90;;;;;;5226638;22;20026;-85
2023/01/22 01:57:13;;;;;;;6.53;6.43;;;1.00;99.90;;;;;;5201571;22;20380;-84
2023/01/22 01:59:34;;;;;;;7.13;6.80;;;0.90;99.90;;;;;;5203270;22;20026;-84
2023/01/22 02:01:55;;;;;;;6.57;6.43;;;0.90;99.90;;;;;;5204341;22;20038;-84
2023/01/22 02:04:15;;;;;;;5.68;5.57;;;0.90;99.90;;;;;;5232583;22;20058;-84
2023/01/22 02:06:34;;;;;;;6.13;6.03;;;0.90;99.90;;;;;;5223998;22;20040;-84
2023/01/22 02:08:56;;;;;;;4.40;4.30;;;0.90;99.90;;;;;;5223997;22;20070;-84
2023/01/22 02:11:18;;;;;;;5.47;5.38;;;0.90;99.90;;;;;;5223952;22;20106;-84
2023/01/22 02:13:42;;;;;;;5.00;4.90;;;0.80;99.90;;;;;;5223899;22;20025;-84
2023/01/22 02:16:04;;;;;;;4.32;4.22;;;0.90;99.90;;;;;;5223970;22;20065;-84
2023/01/22 02:18:24;;;;;;;4.43;4.32;;;0.90;99.90;;;;;;5223974;22;20360;-84
2023/01/22 02:20:52;;;;;;;4.78;4.78;;;0.90;99.90;;;;;;5232415;22;20026;-84
2023/01/22 02:23:12;;;;;;;7.60;7.30;;;1.00;99.90;;;;;;5223867;22;20096;-84
2023/01/22 02:25:33;;;;;;;10.40;9.80;;;1.00;99.90;;;;;;5232578;22;20061;-84
2023/01/22 02:27:53;;;;;;;6.07;5.97;;;1.00;99.90;;;;;;5223880;22;20080;-84
2023/01/22 02:30:13;;;;;;;5.43;5.32;;;1.10;99.90;;;;;;5223896;22;20076;-85
2023/01/22 02:32:33;;;;;;;5.25;5.25;;;1.20;99.90;;;;;;5232509;22;20025;-84
2023/01/22 02:34:53;;;;;;;3.92;3.92;;;1.20;99.90;;;;;;5232383;22;20053;-84
2023/01/22 02:37:13;;;;;;;4.95;4.82;;;1.20;99.90;;;;;;5200222;22;20025;-84
2023/01/22 02:39:33;;;;;;;4.38;4.38;;;1.20;99.90;;;;;;5225293;22;20030;-84
2023/01/22 02:41:53;;;;;;;4.80;4.80;;;1.30;99.90;;;;;;5225996;22;20096;-84
2023/01/22 02:44:13;;;;;;;4.95;4.95;;;1.40;99.90;;;;;;5226522;22;20277;-84
2023/01/22 02:46:33;;;;;;;5.07;5.07;;;1.30;99.90;;;;;;5178657;22;20027;-84
2023/01/22 02:48:53;;;;;;;5.43;5.32;;;1.30;99.90;;;;;;5201393;22;20027;-84
2023/01/22 02:51:13;;;;;;;5.88;5.88;;;1.20;99.90;;;;;;5208968;22;20022;-85
2023/01/22 02:53:33;;;;;;;4.82;4.82;;;1.20;99.90;;;;;;5223789;22;20022;-84
2023/01/22 02:55:53;;;;;;;5.57;5.57;;;1.10;99.90;;;;;;5223482;22;20022;-84
2023/01/22 02:58:13;;;;;;;4.55;4.55;;;1.20;99.90;;;;;;5223719;22;20023;-84
2023/01/22 03:00:33;;;;;;;3.80;3.80;;;1.20;99.90;;;;;;5223571;22;20026;-84
2023/01/22 03:02:53;;;;;;;4.25;4.25;;;1.10;99.90;;;;;;5200165;22;20070;-84
2023/01/22 03:05:13;;;;;;;3.95;3.95;;;1.20;99.90;;;;;;5196865;22;20025;-84
2023/01/22 03:07:43;;;;;;;4.72;4.72;;;1.40;99.90;;;;;;5196844;22;20254;-84
2023/01/22 03:10:03;;;;;;;3.88;3.88;;;1.40;99.90;;;;;;5196980;22;20022;-84
2023/01/22 03:12:23;;;;;;;3.60;3.60;;;1.30;99.90;;;;;;5196847;22;20046;-84
2023/01/22 03:22:39;;;;;;;5.25;5.25;;;1.30;99.90;;;;;;5224083;22;20026;-84
2023/01/22 03:25:00;;;;;;;4.60;4.60;;;1.40;99.90;;;;;;5208928;22;20334;-84
2023/01/22 03:27:21;;;;;;;4.57;4.57;;;1.30;99.90;;;;;;5210020;22;20202;-84
2023/01/22 03:29:42;;;;;;;4.45;4.45;;;1.20;99.90;;;;;;5232031;22;20405;-84
2023/01/22 03:32:02;;;;;;;4.22;4.13;;;1.20;99.90;;;;;;5223508;22;20053;-84
2023/01/22 03:34:24;;;;;;;4.47;4.47;;;1.20;99.90;;;;;;5223316;22;20022;-84
2023/01/22 03:36:46;;;;;;;4.28;4.28;;;1.20;99.90;;;;;;5223357;22;20365;-84
2023/01/22 03:39:05;;;;;;;4.45;4.45;;;1.20;99.90;;;;;;5232039;22;20263;-84
2023/01/22 03:41:25;;;;;;;4.25;4.25;;;1.30;99.90;;;;;;5223328;22;20206;-84
2023/01/22 03:43:45;;;;;;;3.85;3.85;;;1.30;99.90;;;;;;5223311;22;20054;-84
2023/01/22 03:46:14;;;;;;;4.15;4.15;;;1.30;99.90;;;;;;5223334;22;20026;-84
2023/01/22 03:48:34;;;;;;;4.18;4.18;;;1.30;99.90;;;;;;5199794;22;20055;-84
2023/01/22 03:50:54;;;;;;;4.93;4.93;;;1.40;99.90;;;;;;5216247;22;20329;-84
2023/01/22 03:53:14;;;;;;;4.32;4.32;;;1.30;99.90;;;;;;5222032;22;20357;-84
2023/01/22 03:55:34;;;;;;;4.47;4.47;;;1.30;99.90;;;;;;5208214;22;20027;-84
2023/01/22 03:57:53;;;;;;;4.15;4.15;;;1.20;99.90;;;;;;5219220;22;20120;-84
2023/01/22 04:00:14;;;;;;;4.35;4.35;;;1.30;99.90;;;;;;5223067;22;20022;-84
2023/01/22 04:02:34;;;;;;;4.97;4.78;;;1.30;99.90;;;;;;5223256;22;20042;-84
2023/01/22 04:04:54;;;;;;;4.97;4.97;;;1.30;99.90;;;;;;5223277;22;20086;-84
2023/01/22 04:07:14;;;;;;;4.65;4.65;;;1.30;99.90;;;;;;5226374;22;20026;-84
2023/01/22 04:09:34;;;;;;;4.35;4.35;;;1.30;99.90;;;;;;5227726;22;20022;-84
2023/01/22 04:11:54;;;;;;;5.10;5.10;;;1.40;99.90;;;;;;5200902;22;20022;-84
2023/01/22 04:14:14;;;;;;;4.82;4.82;;;1.40;99.90;;;;;;5200809;22;20027;-84
2023/01/22 04:16:34;;;;;;;5.63;5.63;;;1.40;99.90;;;;;;5210543;22;20054;-84
2023/01/22 04:18:54;;;;;;;4.90;4.90;;;1.40;99.90;;;;;;5202076;22;20030;-84
2023/01/22 04:21:14;;;;;;;5.97;5.97;;;1.40;99.90;;;;;;5201082;22;20053;-84
2023/01/22 04:23:35;;;;;;;5.75;5.75;;;1.40;99.90;;;;;;5223214;22;20022;-84
2023/01/22 04:25:54;;;;;;;5.93;5.93;;;1.40;99.90;;;;;;5203278;22;20023;-84
2023/01/22 04:28:15;;;;;;;6.10;5.95;;;1.40;99.90;;;;;;5223208;22;20022;-84
2023/01/22 04:30:37;;;;;;;6.55;6.45;;;1.30;99.90;;;;;;5224282;22;20038;-84
2023/01/22 04:32:57;;;;;;;5.38;5.38;;;1.20;99.90;;;;;;5197627;22;20257;-84
2023/01/22 04:35:17;;;;;;;5.55;5.45;;;1.10;99.90;;;;;;5209088;22;20253;-84
2023/01/22 04:37:37;;;;;;;4.60;4.60;;;1.00;99.90;;;;;;5224224;22;20045;-84
2023/01/22 04:39:57;;;;;;;7.20;7.20;;;0.90;99.90;;;;;;5224208;22;20081;-84
2023/01/22 04:42:17;;;;;;;6.63;6.63;;;0.80;99.90;;;;;;5232925;22;20058;-84
2023/01/22 04:44:37;;;;;;;6.38;6.38;;;0.60;99.90;;;;;;5200669;22;20023;-84
2023/01/22 04:46:57;;;;;;;8.00;7.90;;;0.60;99.90;;;;;;5206099;22;20083;-84
2023/01/22 04:49:17;;;;;;;6.88;6.68;;;0.50;99.90;;;;;;5197590;22;20022;-84
2023/01/22 04:51:38;;;;;;;6.82;6.82;;;0.50;99.90;;;;;;5197480;22;20077;-84
2023/01/22 04:53:58;;;;;;;6.37;6.33;;;0.40;99.90;;;;;;5209181;22;20027;-84
2023/01/22 04:56:18;;;;;;;6.97;6.95;;;0.40;99.90;;;;;;5219005;22;20056;-84
2023/01/22 04:58:39;;;;;;;6.47;6.47;;;0.30;99.90;;;;;;5224190;22;20033;-84
2023/01/22 05:00:59;;;;;;;7.25;7.25;;;0.30;99.90;;;;;;5224099;22;20037;-84
2023/01/22 05:03:19;;;;;;;8.27;8.18;;;0.20;99.90;;;;;;5224328;22;20104;-84
2023/01/22 05:05:38;;;;;;;7.13;7.13;;;0.20;99.90;;;;;;5224176;22;20022;-84
2023/01/22 05:07:59;;;;;;;8.32;8.23;;;0.20;99.90;;;;;;5212927;22;20073;-84
2023/01/22 05:10:19;;;;;;;7.25;7.15;;;0.10;99.90;;;;;;5227527;22;20041;-84
2023/01/22 05:12:40;;;;;;;7.55;7.55;;;0.10;99.90;;;;;;5227452;22;20349;-84
2023/01/22 05:15:00;;;;;;;6.95;6.85;;;0.10;99.90;;;;;;5226997;22;20050;-84
2023/01/22 05:17:20;;;;;;;7.18;7.18;;;0.10;99.90;;;;;;5210241;22;20076;-84
2023/01/22 05:19:40;;;;;;;7.00;7.00;;;0.10;99.90;;;;;;5178762;22;20067;-84
2023/01/22 05:22:00;;;;;;;5.38;5.25;;;0.20;99.90;;;;;;5200802;22;20235;-84
2023/01/22 05:24:20;;;;;;;6.00;5.90;;;0.20;99.90;;;;;;5223017;22;20070;-84
2023/01/22 05:26:40;;;;;;;5.88;5.80;;;0.20;99.90;;;;;;5224154;22;20034;-85
2023/01/22 05:29:00;;;;;;;7.35;7.15;;;0.20;99.90;;;;;;5222950;22;20064;-85
2023/01/22 05:31:21;;;;;;;7.70;7.60;;;0.10;99.90;;;;;;5224082;22;20090;-85
2023/01/22 05:33:43;;;;;;;6.53;6.53;;;0.10;99.90;;;;;;5232557;22;20214;-85
2023/01/22 05:36:03;;;;;;;7.22;7.13;;;0.10;99.90;;;;;;5231550;22;20349;-85
2023/01/22 05:38:23;;;;;;;8.20;8.10;;;0.10;99.90;;;;;;5197251;22;20038;-85
2023/01/22 05:40:44;;;;;;;7.28;7.13;;;0.10;99.90;;;;;;5187621;22;20074;-85
2023/01/22 05:43:04;;;;;;;6.30;6.20;;;0.10;99.90;;;;;;5189570;22;20114;-85
2023/01/22 05:45:24;;;;;;;7.50;7.50;;;0.10;99.90;;;;;;5211130;22;20235;-85
2023/01/22 05:47:49;;;;;;;8.02;7.93;;;0.00;99.90;;;;;;5214454;22;20353;-85
2023/01/22 05:50:10;;;;;;;7.25;7.25;;;0.10;99.90;;;;;;5224056;22;20022;-85
2023/01/22 05:52:29;;;;;;;7.13;7.13;;;0.10;99.90;;;;;;5224005;22;20069;-85
2023/01/22 05:54:49;;;;;;;7.03;7.03;;;0.10;99.90;;;;;;5232671;22;20206;-86
2023/01/22 05:57:08;;;;;;;7.40;7.20;;;0.10;99.90;;;;;;5204925;22;20026;-86
2023/01/22 05:59:28;;;;;;;6.90;6.90;;;0.10;99.90;;;;;;5220681;22;20334;-86
2023/01/22 06:01:48;;;;;;;8.23;8.13;;;0.10;99.90;;;;;;5211199;22;20273;-86
2023/01/22 06:04:08;;;;;;;7.85;7.85;;;0.10;99.90;;;;;;5222681;22;20079;-86
2023/01/22 06:06:28;;;;;;;8.82;8.73;;;0.10;99.90;;;;;;5200633;22;20399;-86
2023/01/22 06:08:51;;;;;;;10.82;10.52;;;0.10;99.90;;;;;;5224680;22;20241;-86
2023/01/22 06:11:13;;;;;;;13.23;12.63;;;0.10;99.90;;;;;;5200617;22;20022;-86
2023/01/22 06:13:33;;;;;;;11.33;10.90;;;0.10;99.90;;;;;;5200524;22;20035;-86
2023/01/22 06:15:53;;;;;;;9.50;9.40;;;0.10;99.90;;;;;;5201473;22;20023;-87
2023/01/22 06:18:14;;;;;;;9.68;9.57;;;0.10;99.90;;;;;;5200428;22;20027;-87
2023/01/22 06:20:33;;;;;;;9.98;9.88;;;0.10;99.90;;;;;;5179566;22;20022;-87
2023/01/22 06:22:53;;;;;;;9.70;9.60;;;0.10;99.90;;;;;;5223923;22;20056;-87
2023/01/22 06:25:14;;;;;;;10.98;10.77;;;0.10;99.90;;;;;;5232569;22;20358;-87
2023/01/22 06:27:33;;;;;;;10.30;10.20;;;0.00;99.90;;;;;;5200312;22;20069;-88
2023/01/22 06:29:53;;;;;;;10.32;10.23;;;0.00;99.90;;;;;;5197078;22;20061;-88
2023/01/22 06:32:13;;;;;;;11.10;10.90;;;0.00;99.90;;;;;;5207207;22;20053;-88
2023/01/22 06:34:33;;;;;;;9.80;9.63;;;0.00;99.90;;;;;;5215599;22;20333;-88
2023/01/22 06:36:53;;;;;;;9.98;9.75;;;0.00;99.90;;;;;;5208180;22;20326;-88
2023/01/22 06:39:12;;;;;;;9.70;9.50;;;0.00;99.90;;;;;;5208599;22;20026;-88
2023/01/22 06:41:33;;;;;;;10.73;10.52;;;0.00;99.90;;;;;;5200141;22;20023;-88
2023/01/22 06:43:52;;;;;;;9.98;9.88;;;-0.10;99.90;;;;;;5221017;22;20375;-88
2023/01/22 06:46:12;;;;;;;9.90;9.80;;;0.00;99.90;;;;;;5210535;22;20432;-88
2023/01/22 06:48:32;;;;;;;9.65;9.55;;;0.00;99.90;;;;;;5214618;22;20042;-88
2023/01/22 06:50:57;;;;;;;8.80;8.60;;;0.00;99.90;;;;;;5222682;22;20245;-88
2023/01/22 06:53:17;;;;;;;8.48;8.38;;;0.00;99.90;;;;;;5206178;22;20027;-88
2023/01/22 06:55:37;;;;;;;8.10;8.00;;;0.00;99.90;;;;;;5220686;22;20222;-88
2023/01/22 06:57:57;;;;;;;8.93;8.82;;;0.00;99.90;;;;;;5223764;22;20068;-89
2023/01/22 07:00:18;;;;;;;8.52;8.43;;;0.00;99.90;;;;;;5202772;22;20349;-89
2023/01/22 07:02:39;;;;;;;9.50;9.40;;;0.00;99.90;;;;;;5222147;22;20025;-89
2023/01/22 07:05:00;;;;;;;8.82;8.73;;;0.00;99.90;;;;;;5200183;22;20094;-88
2023/01/22 07:07:20;;;;;;;6.75;6.75;;;0.00;99.90;;;;;;5203900;22;20034;-88
2023/01/22 07:09:39;;;;;;;9.13;8.82;;;0.00;99.90;;;;;;5225597;22;20021;-88
2023/01/22 07:12:00;;;;;;;7.63;7.53;;;0.10;99.90;;;;;;5226859;22;20072;-89
2023/01/22 07:14:20;;;;;;;8.40;8.30;;;0.10;99.90;;;;;;5202843;22;20026;-88
2023/01/22 07:16:56;;;;;;;7.25;7.15;;;0.00;99.90;;;;;;5192535;22;20026;-88
2023/01/22 07:19:16;;;;;;;8.27;8.18;;;0.10;99.90;;;;;;5223490;22;20076;-89
2023/01/22 07:21:36;;;;;;;6.22;6.22;;;0.10;99.90;;;;;;5223434;22;20077;-89
2023/01/22 07:23:55;;;;;;;7.15;7.15;;;0.10;99.90;;;;;;5223420;22;20076;-89
2023/01/22 07:26:16;;;;;;;6.05;6.05;;;0.10;99.90;;;;;;5216033;22;20022;-88
2023/01/22 07:28:36;;;;;;;6.05;5.95;;;0.10;99.90;;;;;;5208618;22;20340;-86
2023/01/22 07:30:56;;;;;;;8.50;8.35;;;0.10;99.90;;;;;;5223388;22;20034;-86
2023/01/22 07:33:16;;;;;;;8.00;7.90;;;0.20;99.90;;;;;;5223254;22;20046;-86
2023/01/22 07:35:36;;;;;;;10.65;10.45;;;0.10;99.90;;;;;;5223456;22;20198;-86
2023/01/22 07:37:58;;;;;;;9.05;8.95;;;0.10;99.90;;;;;;5223456;22;20021;-86
2023/01/22 07:40:18;;;;;;;9.50;9.40;;;0.20;99.90;;;;;;5223253;22;20041;-86
2023/01/22 07:42:39;;;;;;;9.15;8.75;;;0.20;99.90;;;;;;5223462;22;20390;-86
2023/01/22 07:44:59;;;;;;;9.02;8.85;;;0.20;99.90;;;;;;5200940;22;20106;-86
2023/01/22 07:47:18;;;;;;;12.45;12.05;;;0.30;99.90;;;;;;5218509;22;20026;-86
2023/01/22 07:49:38;;;;;;;8.52;8.43;;;0.20;99.90;;;;;;5224511;22;20029;-86
2023/01/22 07:51:58;;;;;;;8.23;8.13;;;0.20;99.90;;;;;;5224510;22;20030;-85
2023/01/22 07:54:19;;;;;;;9.60;9.50;;;0.10;99.90;;;;;;5224410;22;20026;-86
2023/01/22 07:56:38;;;;;;;19.27;17.58;;;0.20;99.90;;;;;;5224456;22;20050;-86
2023/01/22 07:58:58;;;;;;;27.08;22.77;;;0.20;99.90;;;;;;5197831;22;20249;-86
2023/01/22 08:01:18;;;;;;;31.02;27.70;;;0.20;99.90;;;;;;5224711;22;20044;-85
2023/01/22 08:03:39;;;;;;;10.57;10.38;;;0.20;99.90;;;;;;5227612;22;20026;-85
2023/01/22 08:05:59;;;;;;;9.10;8.90;;;0.20;99.90;;;;;;5227724;22;20065;-85
2023/01/22 08:08:19;;;;;;;11.98;11.73;;;0.20;99.90;;;;;;5212597;22;20079;-85
2023/01/22 08:10:40;;;;;;;25.90;24.88;;;0.20;99.90;;;;;;5201963;22;20026;-85
2023/01/22 08:13:00;;;;;;;20.17;19.40;;;0.30;99.90;;;;;;5202047;22;20350;-85
2023/01/22 08:15:20;;;;;;;11.93;11.73;;;0.30;99.90;;;;;;5202730;22;20075;-85
2023/01/22 08:17:40;;;;;;;15.60;14.93;;;0.40;99.90;;;;;;5224648;22;20085;-85
2023/01/22 08:20:00;;;;;;;14.98;14.30;;;0.40;99.90;;;;;;5224354;22;20061;-85
2023/01/22 08:22:20;;;;;;;13.35;12.95;;;0.40;99.90;;;;;;5224365;22;20062;-82
2023/01/22 08:24:41;;;;;;;16.83;16.02;;;0.40;99.90;;;;;;5232885;22;20084;-82
2023/01/22 08:27:02;;;;;;;19.27;17.58;;;0.40;99.90;;;;;;5232975;22;20359;-85
2023/01/22 08:29:22;;;;;;;12.48;12.13;;;0.50;99.90;;;;;;5204625;22;20034;-85
2023/01/22 08:31:42;;;;;;;12.15;11.75;;;0.60;99.90;;;;;;5224325;22;20026;-85
2023/01/22 08:34:02;;;;;;;18.08;16.90;;;0.70;99.90;;;;;;5224143;22;20072;-85
2023/01/22 08:36:22;;;;;;;14.25;13.75;;;0.70;99.90;;;;;;5224369;22;20050;-85
2023/01/22 08:38:42;;;;;;;14.32;13.77;;;0.70;99.90;;;;;;5232886;22;20114;-85
2023/01/22 08:41:02;;;;;;;12.45;11.95;;;0.60;99.90;;;;;;5224215;22;20034;-85
2023/01/22 08:43:22;;;;;;;10.98;10.77;;;0.60;99.90;;;;;;5224316;22;20022;-85
2023/01/22 08:45:46;;;;;;;10.57;10.38;;;0.60;99.90;;;;;;5224349;22;20346;-85
2023/01/22 08:48:06;;;;;;;11.45;11.18;;;0.60;99.90;;;;;;5224270;22;20036;-85
2023/01/22 08:50:27;;;;;;;13.88;13.30;;;0.70;99.90;;;;;;5206024;22;20023;-85
2023/01/22 08:52:47;;;;;;;15.15;14.43;;;0.60;99.90;;;;;;5221004;22;20025;-85
2023/01/22 08:55:08;;;;;;;19.85;18.08;;;0.60;99.90;;;;;;5223921;22;20068;-85
2023/01/22 08:57:28;;;;;;;18.40;17.02;;;0.70;99.90;;;;;;5201531;22;20026;-85
2023/01/22 08:59:48;;;;;;;12.77;12.27;;;0.70;99.90;;;;;;5224483;22;20030;-85
2023/01/22 09:02:20;;;;;;;8.88;8.77;;;0.70;99.90;;;;;;5226806;22;20026;-85
2023/01/22 09:04:40;;;;;;;11.30;11.00;;;0.70;99.90;;;;;;5200574;22;20022;-85
2023/01/22 09:07:00;;;;;;;10.68;10.38;;;0.80;99.90;;;;;;5201839;22;20027;-85
2023/01/22 09:09:20;;;;;;;9.85;9.65;;;0.80;99.90;;;;;;5202353;22;20023;-85
2023/01/22 09:11:40;;;;;;;9.52;9.27;;;0.80;99.90;;;;;;5224185;22;20418;-85
2023/01/22 09:14:01;;;;;;;9.15;9.05;;;0.80;99.90;;;;;;5211792;22;20077;-86
2023/01/22 09:16:22;;;;;;;13.30;12.55;;;0.90;99.90;;;;;;5219169;22;20369;-86
2023/01/22 09:18:42;;;;;;;11.02;10.73;;;0.80;99.90;;;;;;5206896;22;20211;-85
2023/01/22 09:21:03;;;;;;;11.05;10.80;;;0.90;99.90;;;;;;5200502;22;20027;-85
2023/01/22 09:23:23;;;;;;;11.35;11.05;;;0.90;99.90;;;;;;5209086;22;20317;-85
2023/01/22 09:25:43;;;;;;;11.35;11.15;;;0.90;99.90;;;;;;5200545;22;20234;-85
2023/01/22 09:28:03;;;;;;;9.65;9.55;;;0.90;99.90;;;;;;5197440;22;20021;-85
2023/01/22 09:30:25;;;;;;;10.88;10.70;;;0.90;99.90;;;;;;5205886;22;20053;-86
2023/01/22 09:40:28;;;;;;;12.00;11.70;;;1.10;99.90;;;;;;5004668;23;20086;-85
2023/01/22 09:44:16;;;;;;;9.55;9.45;;;1.30;99.90;;;;;;5051133;23;20094;-85
2023/01/22 09:47:32;;;;;;;8.93;8.82;;;1.30;99.90;;;;;;4987792;23;20045;-85
2023/01/22 09:50:54;;;;;;;11.68;11.30;;;1.40;99.90;;;;;;4979774;23;20447;-85
2023/01/22 09:54:15;;;;;;;8.07;7.97;;;1.50;99.90;;;;;;4979965;23;20337;-85
2023/01/22 09:56:50;;;;;;;7.90;7.80;;;1.50;99.90;;;;;;4979776;23;20059;-86
2023/01/22 09:59:21;;;;;;;10.65;10.45;;;1.60;99.90;;;;;;4987680;23;20031;-86
2023/01/22 10:01:45;;;;;;;12.38;11.80;;;1.50;99.90;;;;;;4979754;23;20050;-86
2023/01/22 10:04:23;;;;;;;11.82;11.43;;;1.60;99.90;;;;;;5002644;23;20025;-85
2023/01/22 10:06:46;;;;;;;11.02;10.73;;;1.80;99.90;;;;;;5050172;23;20381;-85
2023/01/22 10:09:06;;;;;;;16.85;15.35;;;1.90;99.90;;;;;;5051049;23;20249;-85
2023/01/22 10:11:27;;;;;;;13.05;12.25;;;2.00;99.90;;;;;;5059057;23;20371;-86
2023/01/22 10:13:52;;;;;;;8.63;8.52;;;2.10;99.90;;;;;;5050969;23;20099;-86
2023/01/22 10:16:13;;;;;;;9.68;9.48;;;2.00;99.90;;;;;;5048726;23;20289;-86
2023/01/22 10:19:00;;;;;;;9.50;9.25;;;2.20;99.90;;;;;;5104458;23;20112;-85
2023/01/22 10:21:32;;;;;;;9.18;8.98;;;2.20;99.90;;;;;;5159331;23;20039;-86
2023/01/22 10:23:55;;;;;;;8.70;8.50;;;2.10;99.90;;;;;;5149868;23;20047;-86
2023/01/22 10:26:24;;;;;;;9.30;8.85;;;2.10;99.90;;;;;;5158145;23;20028;-86
2023/01/22 10:28:49;;;;;;;8.60;8.48;;;2.00;99.90;;;;;;5159352;23;20087;-86
2023/01/22 10:31:25;;;;;;;8.00;7.90;;;1.90;99.90;;;;;;5150991;23;20084;-86
2023/01/22 10:33:45;;;;;;;9.13;8.98;;;2.00;99.90;;;;;;5173926;23;20042;-87
2023/01/22 10:36:06;;;;;;;14.50;13.80;;;2.00;99.90;;;;;;5153500;23;20074;-86
2023/01/22 10:38:30;;;;;;;12.50;12.02;;;2.00;99.90;;;;;;5172809;23;20035;-86
2023/01/22 10:40:59;;;;;;;9.65;9.30;;;2.00;99.90;;;;;;5153427;23;20058;-87
2023/01/22 10:43:19;;;;;;;8.57;8.35;;;2.00;99.90;;;;;;5183508;23;20034;-87
2023/01/22 10:45:51;;;;;;;9.32;8.95;;;1.90;99.90;;;;;;5136733;23;20228;-87
2023/01/22 10:48:15;;;;;;;10.90;10.60;;;1.90;99.90;;;;;;5151974;23;20028;-87
2023/01/22 10:50:34;;;;;;;;;;;1.90;99.90;;;;;;5181654;23;20028;-87
2023/01/22 10:52:55;;;;;;;10.90;10.40;;;2.00;99.90;;;;;;5172724;23;19959;-87
2023/01/22 10:55:30;;;;;;;12.38;11.68;;;2.00;99.90;;;;;;5181234;23;20239;-86
2023/01/22 10:57:55;;;;;;;12.18;11.60;;;2.00;99.90;;;;;;5161710;23;20338;-87
2023/01/22 11:00:20;;;;;;;10.65;10.27;;;2.20;99.90;;;;;;5153332;23;20239;-87
2023/01/22 11:02:43;;;;;;;11.68;11.25;;;2.30;99.90;;;;;;5181243;23;20374;-87
2023/01/22 11:05:24;;;;;;;9.10;8.90;;;2.40;99.90;;;;;;5161620;23;20039;-88
2023/01/22 11:07:48;;;;;;;9.15;8.95;;;2.60;99.90;;;;;;5180992;23;20062;-88
2023/01/22 11:10:26;;;;;;;10.30;9.82;;;2.80;99.90;;;;;;5184296;23;20023;-87
2023/01/22 11:13:22;;;;;;;7.57;7.47;;;3.10;99.90;;;;;;5172712;23;20029;-86
2023/01/22 11:16:04;;;;;;;6.63;6.53;;;3.10;99.90;;;;;;5086598;23;20109;-87
2023/01/22 11:19:27;;;;;;;6.00;5.80;;;3.10;99.90;;;;;;5100365;23;20391;-86
2023/01/22 11:21:58;;;;;;;8.07;7.97;;;3.10;99.90;;;;;;5108440;23;20113;-87
2023/01/22 11:24:54;;;;;;;;;;;3.10;99.90;;;;;;5088523;23;20032;-87
2023/01/22 11:27:18;;;;;;;12.27;11.32;;;3.10;99.90;;;;;;5076456;23;19927;-87
2023/01/22 11:29:46;;;;;;;13.88;13.10;;;3.10;99.90;;;;;;5100300;23;20244;-87
2023/01/22 11:32:24;;;;;;;9.85;9.63;;;3.10;99.90;;;;;;5108393;23;20388;-87
2023/01/22 11:35:02;;;;;;;9.02;8.90;;;3.00;99.90;;;;;;5100369;23;20147;-87
2023/01/22 11:37:53;;;;;;;7.30;7.20;;;3.20;99.90;;;;;;5100205;23;20027;-87
2023/01/22 11:40:27;;;;;;;7.90;7.70;;;3.30;99.90;;;;;;5100226;23;20355;-87
2023/01/22 11:43:11;;;;;;;10.63;10.23;;;3.30;99.90;;;;;;5108472;23;20351;-86
2023/01/22 11:45:40;;;;;;;22.88;20.77;;;3.40;99.90;;;;;;5087584;23;20024;-86
2023/01/22 11:48:10;;;;;;;23.15;20.98;;;3.50;99.90;;;;;;5108373;23;20120;-86
2023/01/22 11:50:48;;;;;;;19.40;17.75;;;3.50;99.90;;;;;;5110185;23;20036;-87
2023/01/22 11:53:56;;;;;;;21.05;19.40;;;3.50;99.90;;;;;;5159926;23;20043;-86
2023/01/22 11:56:34;;;;;;;11.90;11.35;;;3.60;99.90;;;;;;5161126;23;20026;-86
2023/01/22 11:59:24;;;;;;;27.02;22.60;;;3.40;99.90;;;;;;5162461;23;20067;-86
2023/01/22 12:02:03;;;;;;;14.73;13.82;;;3.50;99.90;;;;;;5154538;23;20026;-86
2023/01/22 12:04:42;;;;;;;10.27;9.98;;;3.50;99.90;;;;;;5160968;23;20082;-86
2023/01/22 12:07:30;;;;;;;11.20;10.52;;;3.50;99.90;;;;;;5163047;23;20043;-86
2023/01/22 12:10:18;;;;;;;14.45;13.52;;;3.50;99.90;;;;;;5154016;23;20027;-86
2023/01/22 12:13:00;;;;;;;13.65;12.77;;;3.40;99.90;;;;;;5173381;23;20026;-86
2023/01/22 12:15:45;;;;;;;16.83;15.57;;;3.40;99.90;;;;;;5185094;23;20023;-86
2023/01/22 12:18:33;;;;;;;6.78;6.68;;;3.40;99.90;;;;;;5173535;23;20027;-86
2023/01/22 12:21:04;;;;;;;6.53;6.43;;;3.30;99.90;;;;;;5173377;23;20111;-86
2023/01/22 12:23:32;;;;;;;8.05;7.85;;;3.30;99.90;;;;;;5173841;23;20030;-86
2023/01/22 12:26:16;;;;;;;7.03;6.93;;;3.30;99.90;;;;;;5154124;23;20082;-86
2023/01/22 12:28:55;;;;;;;;;;;3.30;99.90;;;;;;5173472;22;20086;-86
2023/01/22 12:31:24;;;;;;;7.10;6.90;;;3.30;99.90;;;;;;5154130;23;19954;-86
2023/01/22 12:33:44;;;;;;;4.85;4.75;;;3.20;99.90;;;;;;5159634;23;20027;-86
2023/01/22 12:36:08;;;;;;;4.13;4.13;;;3.20;99.90;;;;;;5160388;23;20203;-85
2023/01/22 12:38:51;;;;;;;4.93;4.93;;;3.20;99.90;;;;;;5173491;23;20031;-86
2023/01/22 12:41:43;;;;;;;7.28;6.88;;;3.10;99.90;;;;;;5173287;23;20035;-86
2023/01/22 12:44:32;;;;;;;4.25;4.15;;;3.10;99.90;;;;;;5166851;23;20023;-86
2023/01/22 12:47:00;;;;;;;8.32;7.97;;;3.10;99.90;;;;;;5162319;23;20066;-86
2023/01/22 12:49:20;;;;;;;9.77;9.48;;;3.10;99.90;;;;;;5153266;23;20084;-86
2023/01/22 12:51:42;;;;;;;8.32;8.02;;;3.00;99.90;;;;;;5151286;23;20055;-86
2023/01/22 12:54:27;;;;;;;7.32;7.22;;;3.00;99.90;;;;;;5151365;23;20028;-86
2023/01/22 12:56:49;;;;;;;4.90;4.80;;;2.90;99.90;;;;;;5157591;23;20027;-86